sensor_id;sensor_type;location;lat;lon;timestamp;P1;durP1;ratioP1;P2;durP2;ratioP2
53281;SDS011;39167;52.794;6.892;2023-05-01T00:00:10;7.60;;;4.18;;
53281;SDS011;39167;52.794;6.892;2023-05-01T00:02:37;7.75;;;4.50;;
53281;SDS011;39167;52.794;6.892;2023-05-01T00:05:02;7.07;;;3.70;;
53281;SDS011;39167;52.794;6.892;2023-05-01T00:07:28;9.45;;;4.57;;
53281;SDS011;39167;52.794;6.892;2023-05-01T00:09:58;6.32;;;3.70;;
53281;SDS011;39167;52.794;6.892;2023-05-01T00:12:24;7.72;;;3.90;;
53281;SDS011;39167;52.794;6.892;2023-05-01T00:14:50;5.82;;;3.63;;
53281;SDS011;39167;52.794;6.892;2023-05-01T00:17:17;8.20;;;3.92;;
53281;SDS011;39167;52.794;6.892;2023-05-01T00:19:43;7.43;;;3.60;;
53281;SDS011;39167;52.794;6.892;2023-05-01T00:22:09;7.63;;;4.15;;
53281;SDS011;39167;52.794;6.892;2023-05-01T00:24:35;6.40;;;3.60;;
53281;SDS011;39167;52.794;6.892;2023-05-01T00:27:00;7.15;;;3.80;;
53281;SDS011;39167;52.794;6.892;2023-05-01T00:29:27;9.50;;;3.75;;
53281;SDS011;39167;52.794;6.892;2023-05-01T00:31:56;8.40;;;3.78;;
53281;SDS011;39167;52.794;6.892;2023-05-01T00:34:22;6.68;;;4.00;;
53281;SDS011;39167;52.794;6.892;2023-05-01T00:36:49;7.90;;;4.03;;
53281;SDS011;39167;52.794;6.892;2023-05-01T00:39:14;4.97;;;3.60;;
53281;SDS011;39167;52.794;6.892;2023-05-01T00:41:40;8.77;;;4.20;;
53281;SDS011;39167;52.794;6.892;2023-05-01T00:44:06;9.05;;;4.32;;
53281;SDS011;39167;52.794;6.892;2023-05-01T00:46:31;9.45;;;4.30;;
53281;SDS011;39167;52.794;6.892;2023-05-01T00:48:58;7.43;;;4.15;;
53281;SDS011;39167;52.794;6.892;2023-05-01T00:51:25;9.80;;;4.13;;
53281;SDS011;39167;52.794;6.892;2023-05-01T00:53:54;7.13;;;4.00;;
53281;SDS011;39167;52.794;6.892;2023-05-01T00:56:20;9.25;;;4.72;;
53281;SDS011;39167;52.794;6.892;2023-05-01T00:58:47;8.27;;;4.30;;
53281;SDS011;39167;52.794;6.892;2023-05-01T01:01:16;11.20;;;4.20;;
53281;SDS011;39167;52.794;6.892;2023-05-01T01:03:41;8.60;;;4.65;;
53281;SDS011;39167;52.794;6.892;2023-05-01T01:06:51;7.60;;;3.70;;
53281;SDS011;39167;52.794;6.892;2023-05-01T01:09:24;10.88;;;4.40;;
53281;SDS011;39167;52.794;6.892;2023-05-01T01:15:13;6.95;;;3.85;;
53281;SDS011;39167;52.794;6.892;2023-05-01T01:18:23;9.60;;;4.30;;
53281;SDS011;39167;52.794;6.892;2023-05-01T01:20:43;6.60;;;4.18;;
53281;SDS011;39167;52.794;6.892;2023-05-01T01:26:11;8.07;;;4.18;;
53281;SDS011;39167;52.794;6.892;2023-05-01T01:36:57;8.93;;;4.07;;
53281;SDS011;39167;52.794;6.892;2023-05-01T01:45:24;6.72;;;3.75;;
53281;SDS011;39167;52.794;6.892;2023-05-01T01:50:21;13.52;;;4.53;;
53281;SDS011;39167;52.794;6.892;2023-05-01T01:52:50;6.80;;;4.20;;
53281;SDS011;39167;52.794;6.892;2023-05-01T01:55:20;9.27;;;4.47;;
53281;SDS011;39167;52.794;6.892;2023-05-01T01:57:49;9.57;;;4.75;;
53281;SDS011;39167;52.794;6.892;2023-05-01T02:00:16;10.60;;;4.25;;
53281;SDS011;39167;52.794;6.892;2023-05-01T02:02:42;7.07;;;3.97;;
53281;SDS011;39167;52.794;6.892;2023-05-01T02:05:12;7.90;;;4.30;;
53281;SDS011;39167;52.794;6.892;2023-05-01T02:07:40;8.55;;;4.75;;
53281;SDS011;39167;52.794;6.892;2023-05-01T02:10:10;7.90;;;4.20;;
53281;SDS011;39167;52.794;6.892;2023-05-01T02:12:38;9.02;;;4.63;;
53281;SDS011;39167;52.794;6.892;2023-05-01T02:15:05;9.68;;;4.00;;
53281;SDS011;39167;52.794;6.892;2023-05-01T02:17:34;7.13;;;4.30;;
53281;SDS011;39167;52.794;6.892;2023-05-01T02:20:02;7.85;;;4.35;;
53281;SDS011;39167;52.794;6.892;2023-05-01T02:22:30;9.75;;;4.32;;
53281;SDS011;39167;52.794;6.892;2023-05-01T02:25:00;9.15;;;4.55;;
53281;SDS011;39167;52.794;6.892;2023-05-01T02:27:31;9.68;;;4.10;;
53281;SDS011;39167;52.794;6.892;2023-05-01T02:30:00;8.88;;;4.53;;
53281;SDS011;39167;52.794;6.892;2023-05-01T02:32:26;15.00;;;4.65;;
53281;SDS011;39167;52.794;6.892;2023-05-01T02:34:52;10.45;;;4.45;;
53281;SDS011;39167;52.794;6.892;2023-05-01T02:37:18;7.63;;;3.97;;
53281;SDS011;39167;52.794;6.892;2023-05-01T02:39:45;10.93;;;5.10;;
53281;SDS011;39167;52.794;6.892;2023-05-01T02:42:11;11.93;;;4.68;;
53281;SDS011;39167;52.794;6.892;2023-05-01T02:44:48;6.32;;;3.80;;
53281;SDS011;39167;52.794;6.892;2023-05-01T02:47:19;8.15;;;4.40;;
53281;SDS011;39167;52.794;6.892;2023-05-01T02:49:47;10.38;;;4.68;;
53281;SDS011;39167;52.794;6.892;2023-05-01T02:52:15;11.95;;;3.80;;
53281;SDS011;39167;52.794;6.892;2023-05-01T02:54:45;9.95;;;4.97;;
53281;SDS011;39167;52.794;6.892;2023-05-01T02:57:11;8.45;;;4.57;;
53281;SDS011;39167;52.794;6.892;2023-05-01T02:59:38;9.20;;;4.38;;
53281;SDS011;39167;52.794;6.892;2023-05-01T03:02:05;9.50;;;4.80;;
53281;SDS011;39167;52.794;6.892;2023-05-01T03:04:31;9.60;;;4.63;;
53281;SDS011;39167;52.794;6.892;2023-05-01T03:06:57;9.63;;;5.20;;
53281;SDS011;39167;52.794;6.892;2023-05-01T03:09:22;11.00;;;4.75;;
53281;SDS011;39167;52.794;6.892;2023-05-01T03:11:48;10.85;;;4.43;;
53281;SDS011;39167;52.794;6.892;2023-05-01T03:14:14;7.95;;;4.80;;
53281;SDS011;39167;52.794;6.892;2023-05-01T03:16:39;9.30;;;4.80;;
53281;SDS011;39167;52.794;6.892;2023-05-01T03:19:05;8.75;;;4.65;;
53281;SDS011;39167;52.794;6.892;2023-05-01T03:21:31;10.13;;;4.85;;
53281;SDS011;39167;52.794;6.892;2023-05-01T03:23:58;9.18;;;4.70;;
53281;SDS011;39167;52.794;6.892;2023-05-01T03:26:24;6.57;;;4.57;;
53281;SDS011;39167;52.794;6.892;2023-05-01T03:28:50;8.85;;;4.97;;
53281;SDS011;39167;52.794;6.892;2023-05-01T03:31:15;9.32;;;5.93;;
53281;SDS011;39167;52.794;6.892;2023-05-01T03:33:41;10.63;;;5.07;;
53281;SDS011;39167;52.794;6.892;2023-05-01T03:36:07;8.77;;;5.38;;
53281;SDS011;39167;52.794;6.892;2023-05-01T03:38:35;9.45;;;5.22;;
53281;SDS011;39167;52.794;6.892;2023-05-01T03:41:01;9.63;;;5.03;;
53281;SDS011;39167;52.794;6.892;2023-05-01T03:43:29;8.73;;;5.07;;
53281;SDS011;39167;52.794;6.892;2023-05-01T03:45:55;12.07;;;5.28;;
53281;SDS011;39167;52.794;6.892;2023-05-01T03:48:22;8.65;;;4.93;;
53281;SDS011;39167;52.794;6.892;2023-05-01T03:50:49;8.88;;;5.13;;
53281;SDS011;39167;52.794;6.892;2023-05-01T03:53:15;10.10;;;4.85;;
53281;SDS011;39167;52.794;6.892;2023-05-01T03:55:41;10.35;;;5.75;;
53281;SDS011;39167;52.794;6.892;2023-05-01T03:58:07;9.50;;;5.20;;
53281;SDS011;39167;52.794;6.892;2023-05-01T04:00:35;11.98;;;6.03;;
53281;SDS011;39167;52.794;6.892;2023-05-01T04:03:02;11.43;;;5.28;;
53281;SDS011;39167;52.794;6.892;2023-05-01T04:05:28;9.50;;;5.70;;
53281;SDS011;39167;52.794;6.892;2023-05-01T04:07:57;10.23;;;5.55;;
53281;SDS011;39167;52.794;6.892;2023-05-01T04:10:22;10.40;;;5.70;;
53281;SDS011;39167;52.794;6.892;2023-05-01T04:12:48;12.52;;;6.18;;
53281;SDS011;39167;52.794;6.892;2023-05-01T04:15:14;10.68;;;5.90;;
53281;SDS011;39167;52.794;6.892;2023-05-01T04:17:43;9.85;;;5.45;;
53281;SDS011;39167;52.794;6.892;2023-05-01T04:20:08;9.90;;;5.30;;
53281;SDS011;39167;52.794;6.892;2023-05-01T04:22:35;8.82;;;5.30;;
53281;SDS011;39167;52.794;6.892;2023-05-01T04:25:01;10.27;;;5.65;;
53281;SDS011;39167;52.794;6.892;2023-05-01T04:27:28;9.38;;;5.38;;
53281;SDS011;39167;52.794;6.892;2023-05-01T04:29:54;9.70;;;5.72;;
53281;SDS011;39167;52.794;6.892;2023-05-01T04:32:21;10.35;;;5.65;;
53281;SDS011;39167;52.794;6.892;2023-05-01T04:34:46;12.02;;;5.43;;
53281;SDS011;39167;52.794;6.892;2023-05-01T04:37:12;10.85;;;5.53;;
53281;SDS011;39167;52.794;6.892;2023-05-01T04:39:38;10.90;;;5.55;;
53281;SDS011;39167;52.794;6.892;2023-05-01T04:42:04;11.48;;;5.85;;
53281;SDS011;39167;52.794;6.892;2023-05-01T04:44:30;12.50;;;6.03;;
53281;SDS011;39167;52.794;6.892;2023-05-01T04:46:59;11.15;;;5.75;;
53281;SDS011;39167;52.794;6.892;2023-05-01T04:49:27;12.32;;;5.88;;
53281;SDS011;39167;52.794;6.892;2023-05-01T04:51:52;9.35;;;5.55;;
53281;SDS011;39167;52.794;6.892;2023-05-01T04:54:18;10.85;;;5.53;;
53281;SDS011;39167;52.794;6.892;2023-05-01T04:56:44;11.50;;;5.32;;
53281;SDS011;39167;52.794;6.892;2023-05-01T04:59:09;9.48;;;5.88;;
53281;SDS011;39167;52.794;6.892;2023-05-01T05:01:35;12.70;;;6.00;;
53281;SDS011;39167;52.794;6.892;2023-05-01T05:04:01;8.73;;;4.97;;
53281;SDS011;39167;52.794;6.892;2023-05-01T05:06:26;11.00;;;5.82;;
53281;SDS011;39167;52.794;6.892;2023-05-01T05:08:52;12.65;;;5.82;;
53281;SDS011;39167;52.794;6.892;2023-05-01T05:11:18;9.52;;;5.45;;
53281;SDS011;39167;52.794;6.892;2023-05-01T05:13:44;10.40;;;5.57;;
53281;SDS011;39167;52.794;6.892;2023-05-01T05:16:10;10.25;;;5.93;;
53281;SDS011;39167;52.794;6.892;2023-05-01T05:18:36;11.02;;;5.95;;
53281;SDS011;39167;52.794;6.892;2023-05-01T05:21:06;9.93;;;5.53;;
53281;SDS011;39167;52.794;6.892;2023-05-01T05:23:32;11.90;;;6.00;;
53281;SDS011;39167;52.794;6.892;2023-05-01T05:25:59;13.15;;;6.00;;
53281;SDS011;39167;52.794;6.892;2023-05-01T05:28:27;13.05;;;5.72;;
53281;SDS011;39167;52.794;6.892;2023-05-01T05:30:54;11.52;;;5.40;;
53281;SDS011;39167;52.794;6.892;2023-05-01T05:33:26;8.98;;;5.38;;
53281;SDS011;39167;52.794;6.892;2023-05-01T05:35:53;9.57;;;5.40;;
53281;SDS011;39167;52.794;6.892;2023-05-01T05:38:18;9.55;;;5.68;;
53281;SDS011;39167;52.794;6.892;2023-05-01T05:40:44;12.15;;;5.88;;
53281;SDS011;39167;52.794;6.892;2023-05-01T05:43:10;13.05;;;5.35;;
53281;SDS011;39167;52.794;6.892;2023-05-01T05:45:36;10.10;;;5.30;;
53281;SDS011;39167;52.794;6.892;2023-05-01T05:48:04;12.10;;;5.70;;
53281;SDS011;39167;52.794;6.892;2023-05-01T05:50:30;9.00;;;5.32;;
53281;SDS011;39167;52.794;6.892;2023-05-01T05:52:56;13.15;;;5.28;;
53281;SDS011;39167;52.794;6.892;2023-05-01T05:55:21;13.45;;;5.95;;
53281;SDS011;39167;52.794;6.892;2023-05-01T05:57:47;11.07;;;5.40;;
53281;SDS011;39167;52.794;6.892;2023-05-01T06:00:19;14.00;;;5.47;;
53281;SDS011;39167;52.794;6.892;2023-05-01T06:02:45;16.63;;;5.50;;
53281;SDS011;39167;52.794;6.892;2023-05-01T06:05:11;11.43;;;5.80;;
53281;SDS011;39167;52.794;6.892;2023-05-01T06:07:37;12.20;;;5.45;;
53281;SDS011;39167;52.794;6.892;2023-05-01T06:10:03;12.00;;;5.40;;
53281;SDS011;39167;52.794;6.892;2023-05-01T06:12:30;12.38;;;5.68;;
53281;SDS011;39167;52.794;6.892;2023-05-01T06:14:56;15.25;;;5.80;;
53281;SDS011;39167;52.794;6.892;2023-05-01T06:17:23;13.95;;;5.88;;
53281;SDS011;39167;52.794;6.892;2023-05-01T06:19:52;12.82;;;5.50;;
53281;SDS011;39167;52.794;6.892;2023-05-01T06:22:18;10.27;;;5.78;;
53281;SDS011;39167;52.794;6.892;2023-05-01T06:24:43;9.65;;;5.60;;
53281;SDS011;39167;52.794;6.892;2023-05-01T06:27:10;11.90;;;5.72;;
53281;SDS011;39167;52.794;6.892;2023-05-01T06:29:36;13.43;;;6.05;;
53281;SDS011;39167;52.794;6.892;2023-05-01T06:32:02;10.18;;;5.57;;
53281;SDS011;39167;52.794;6.892;2023-05-01T06:34:28;16.00;;;6.10;;
53281;SDS011;39167;52.794;6.892;2023-05-01T06:36:54;10.70;;;5.30;;
53281;SDS011;39167;52.794;6.892;2023-05-01T06:39:20;12.25;;;5.38;;
53281;SDS011;39167;52.794;6.892;2023-05-01T06:41:46;13.90;;;5.60;;
53281;SDS011;39167;52.794;6.892;2023-05-01T06:44:12;10.45;;;5.15;;
53281;SDS011;39167;52.794;6.892;2023-05-01T06:46:37;7.90;;;5.43;;
53281;SDS011;39167;52.794;6.892;2023-05-01T06:49:03;11.32;;;5.53;;
53281;SDS011;39167;52.794;6.892;2023-05-01T06:51:29;8.68;;;5.05;;
53281;SDS011;39167;52.794;6.892;2023-05-01T06:53:55;13.52;;;5.53;;
53281;SDS011;39167;52.794;6.892;2023-05-01T06:56:21;11.43;;;5.97;;
53281;SDS011;39167;52.794;6.892;2023-05-01T06:58:47;13.07;;;5.75;;
53281;SDS011;39167;52.794;6.892;2023-05-01T07:01:13;12.05;;;5.15;;
53281;SDS011;39167;52.794;6.892;2023-05-01T07:03:39;13.77;;;6.07;;
53281;SDS011;39167;52.794;6.892;2023-05-01T07:06:05;11.85;;;6.05;;
53281;SDS011;39167;52.794;6.892;2023-05-01T07:08:30;10.70;;;5.45;;
53281;SDS011;39167;52.794;6.892;2023-05-01T07:10:56;16.73;;;6.07;;
53281;SDS011;39167;52.794;6.892;2023-05-01T07:13:25;8.48;;;5.47;;
53281;SDS011;39167;52.794;6.892;2023-05-01T07:15:51;11.02;;;5.93;;
53281;SDS011;39167;52.794;6.892;2023-05-01T07:18:17;11.88;;;5.88;;
53281;SDS011;39167;52.794;6.892;2023-05-01T07:20:43;11.50;;;5.43;;
53281;SDS011;39167;52.794;6.892;2023-05-01T07:23:09;11.93;;;5.47;;
53281;SDS011;39167;52.794;6.892;2023-05-01T07:25:35;12.65;;;5.57;;
53281;SDS011;39167;52.794;6.892;2023-05-01T07:28:09;15.05;;;6.18;;
53281;SDS011;39167;52.794;6.892;2023-05-01T07:30:35;11.63;;;6.00;;
53281;SDS011;39167;52.794;6.892;2023-05-01T07:33:04;11.43;;;5.88;;
53281;SDS011;39167;52.794;6.892;2023-05-01T07:35:33;11.63;;;5.75;;
53281;SDS011;39167;52.794;6.892;2023-05-01T07:37:58;11.85;;;5.43;;
53281;SDS011;39167;52.794;6.892;2023-05-01T07:40:24;11.05;;;6.22;;
53281;SDS011;39167;52.794;6.892;2023-05-01T07:42:50;12.13;;;5.75;;
53281;SDS011;39167;52.794;6.892;2023-05-01T07:45:16;12.55;;;5.90;;
53281;SDS011;39167;52.794;6.892;2023-05-01T07:47:42;13.77;;;6.07;;
53281;SDS011;39167;52.794;6.892;2023-05-01T07:50:11;11.48;;;5.68;;
53281;SDS011;39167;52.794;6.892;2023-05-01T07:52:37;13.48;;;6.45;;
53281;SDS011;39167;52.794;6.892;2023-05-01T07:55:04;14.18;;;6.80;;
53281;SDS011;39167;52.794;6.892;2023-05-01T07:57:30;11.68;;;6.22;;
53281;SDS011;39167;52.794;6.892;2023-05-01T07:59:58;16.67;;;6.75;;
53281;SDS011;39167;52.794;6.892;2023-05-01T08:02:24;12.57;;;6.45;;
53281;SDS011;39167;52.794;6.892;2023-05-01T08:04:50;17.67;;;7.50;;
53281;SDS011;39167;52.794;6.892;2023-05-01T08:07:16;13.50;;;5.88;;
53281;SDS011;39167;52.794;6.892;2023-05-01T08:09:41;11.55;;;5.65;;
53281;SDS011;39167;52.794;6.892;2023-05-01T08:12:07;16.33;;;6.10;;
53281;SDS011;39167;52.794;6.892;2023-05-01T08:14:33;11.35;;;5.70;;
53281;SDS011;39167;52.794;6.892;2023-05-01T08:16:59;9.80;;;6.15;;
53281;SDS011;39167;52.794;6.892;2023-05-01T08:19:24;12.07;;;6.15;;
53281;SDS011;39167;52.794;6.892;2023-05-01T08:21:52;12.55;;;5.95;;
53281;SDS011;39167;52.794;6.892;2023-05-01T08:24:18;13.57;;;5.80;;
53281;SDS011;39167;52.794;6.892;2023-05-01T08:26:43;11.57;;;5.38;;
53281;SDS011;39167;52.794;6.892;2023-05-01T08:29:09;14.02;;;5.25;;
53281;SDS011;39167;52.794;6.892;2023-05-01T08:31:35;14.15;;;6.05;;
53281;SDS011;39167;52.794;6.892;2023-05-01T08:34:05;9.07;;;5.10;;
53281;SDS011;39167;52.794;6.892;2023-05-01T08:36:31;11.30;;;5.47;;
53281;SDS011;39167;52.794;6.892;2023-05-01T08:38:57;11.70;;;5.00;;
53281;SDS011;39167;52.794;6.892;2023-05-01T08:41:23;11.65;;;5.38;;
53281;SDS011;39167;52.794;6.892;2023-05-01T08:43:51;12.48;;;5.40;;
53281;SDS011;39167;52.794;6.892;2023-05-01T08:46:36;9.43;;;5.30;;
53281;SDS011;39167;52.794;6.892;2023-05-01T08:49:09;8.05;;;4.97;;
53281;SDS011;39167;52.794;6.892;2023-05-01T08:51:38;10.75;;;5.40;;
53281;SDS011;39167;52.794;6.892;2023-05-01T08:54:05;12.13;;;4.78;;
53281;SDS011;39167;52.794;6.892;2023-05-01T08:56:34;10.02;;;5.30;;
53281;SDS011;39167;52.794;6.892;2023-05-01T08:59:02;10.13;;;5.10;;
53281;SDS011;39167;52.794;6.892;2023-05-01T09:01:29;7.55;;;5.20;;
53281;SDS011;39167;52.794;6.892;2023-05-01T09:03:57;11.15;;;5.28;;
53281;SDS011;39167;52.794;6.892;2023-05-01T09:06:26;12.23;;;5.90;;
53281;SDS011;39167;52.794;6.892;2023-05-01T09:08:59;7.82;;;4.70;;
53281;SDS011;39167;52.794;6.892;2023-05-01T09:11:24;7.30;;;4.45;;
53281;SDS011;39167;52.794;6.892;2023-05-01T09:13:51;12.85;;;4.50;;
53281;SDS011;39167;52.794;6.892;2023-05-01T09:16:17;9.82;;;4.70;;
53281;SDS011;39167;52.794;6.892;2023-05-01T09:18:44;9.25;;;4.78;;
53281;SDS011;39167;52.794;6.892;2023-05-01T09:21:10;9.00;;;4.13;;
53281;SDS011;39167;52.794;6.892;2023-05-01T09:23:36;10.38;;;4.93;;
53281;SDS011;39167;52.794;6.892;2023-05-01T09:26:08;8.85;;;4.78;;
53281;SDS011;39167;52.794;6.892;2023-05-01T09:28:38;9.18;;;4.68;;
53281;SDS011;39167;52.794;6.892;2023-05-01T09:31:29;11.18;;;4.82;;
53281;SDS011;39167;52.794;6.892;2023-05-01T09:33:57;10.10;;;5.07;;
53281;SDS011;39167;52.794;6.892;2023-05-01T09:36:25;11.65;;;5.15;;
53281;SDS011;39167;52.794;6.892;2023-05-01T09:38:53;13.10;;;5.53;;
53281;SDS011;39167;52.794;6.892;2023-05-01T09:41:19;8.57;;;4.40;;
53281;SDS011;39167;52.794;6.892;2023-05-01T09:43:51;9.30;;;4.65;;
53281;SDS011;39167;52.794;6.892;2023-05-01T09:46:18;6.80;;;3.93;;
53281;SDS011;39167;52.794;6.892;2023-05-01T09:48:53;11.35;;;5.13;;
53281;SDS011;39167;52.794;6.892;2023-05-01T09:56:21;12.52;;;5.60;;
53281;SDS011;39167;52.794;6.892;2023-05-01T09:58:49;11.32;;;5.10;;
53281;SDS011;39167;52.794;6.892;2023-05-01T10:01:15;8.30;;;4.18;;
53281;SDS011;39167;52.794;6.892;2023-05-01T10:03:42;8.38;;;4.32;;
53281;SDS011;39167;52.794;6.892;2023-05-01T10:06:09;9.88;;;4.63;;
53281;SDS011;39167;52.794;6.892;2023-05-01T10:08:44;8.38;;;4.07;;
53281;SDS011;39167;52.794;6.892;2023-05-01T10:11:14;9.95;;;4.60;;
53281;SDS011;39167;52.794;6.892;2023-05-01T10:13:40;8.80;;;4.47;;
53281;SDS011;39167;52.794;6.892;2023-05-01T10:16:06;8.63;;;4.10;;
53281;SDS011;39167;52.794;6.892;2023-05-01T10:18:51;8.48;;;3.83;;
53281;SDS011;39167;52.794;6.892;2023-05-01T10:21:23;9.93;;;4.47;;
53281;SDS011;39167;52.794;6.892;2023-05-01T10:23:50;8.63;;;4.32;;
53281;SDS011;39167;52.794;6.892;2023-05-01T10:26:17;6.90;;;3.70;;
53281;SDS011;39167;52.794;6.892;2023-05-01T10:28:45;6.97;;;3.85;;
53281;SDS011;39167;52.794;6.892;2023-05-01T10:31:12;6.85;;;3.85;;
53281;SDS011;39167;52.794;6.892;2023-05-01T10:33:47;10.07;;;4.10;;
53281;SDS011;39167;52.794;6.892;2023-05-01T10:36:26;5.35;;;2.80;;
53281;SDS011;39167;52.794;6.892;2023-05-01T10:39:01;10.90;;;3.63;;
53281;SDS011;39167;52.794;6.892;2023-05-01T10:44:25;8.05;;;3.17;;
53281;SDS011;39167;52.794;6.892;2023-05-01T10:46:52;9.02;;;3.40;;
53281;SDS011;39167;52.794;6.892;2023-05-01T10:49:21;9.07;;;3.38;;
53281;SDS011;39167;52.794;6.892;2023-05-01T10:51:57;9.63;;;3.00;;
53281;SDS011;39167;52.794;6.892;2023-05-01T10:54:31;6.25;;;2.95;;
53281;SDS011;39167;52.794;6.892;2023-05-01T10:56:58;10.52;;;3.38;;
53281;SDS011;39167;52.794;6.892;2023-05-01T11:00:09;9.13;;;3.03;;
53281;SDS011;39167;52.794;6.892;2023-05-01T11:02:28;7.75;;;2.80;;
53281;SDS011;39167;52.794;6.892;2023-05-01T11:04:54;9.05;;;2.60;;
53281;SDS011;39167;52.794;6.892;2023-05-01T11:07:21;9.43;;;2.80;;
53281;SDS011;39167;52.794;6.892;2023-05-01T11:09:54;8.30;;;2.65;;
53281;SDS011;39167;52.794;6.892;2023-05-01T11:15:10;6.85;;;2.83;;
53281;SDS011;39167;52.794;6.892;2023-05-01T11:22:58;5.72;;;2.03;;
53281;SDS011;39167;52.794;6.892;2023-05-01T11:28:01;5.55;;;2.63;;
53281;SDS011;39167;52.794;6.892;2023-05-01T11:30:37;5.93;;;2.65;;
53281;SDS011;39167;52.794;6.892;2023-05-01T11:33:03;5.07;;;2.10;;
53281;SDS011;39167;52.794;6.892;2023-05-01T11:35:30;7.32;;;3.47;;
53281;SDS011;39167;52.794;6.892;2023-05-01T11:37:56;4.65;;;2.60;;
53281;SDS011;39167;52.794;6.892;2023-05-01T11:40:23;7.18;;;2.42;;
53281;SDS011;39167;52.794;6.892;2023-05-01T11:42:51;6.63;;;3.03;;
53281;SDS011;39167;52.794;6.892;2023-05-01T11:45:33;8.30;;;3.28;;
53281;SDS011;39167;52.794;6.892;2023-05-01T11:48:00;8.73;;;3.38;;
53281;SDS011;39167;52.794;6.892;2023-05-01T11:50:33;11.35;;;3.63;;
53281;SDS011;39167;52.794;6.892;2023-05-01T11:53:01;6.18;;;2.95;;
53281;SDS011;39167;52.794;6.892;2023-05-01T11:55:31;8.48;;;3.72;;
53281;SDS011;39167;52.794;6.892;2023-05-01T12:00:55;5.85;;;3.25;;
53281;SDS011;39167;52.794;6.892;2023-05-01T12:03:22;7.90;;;3.38;;
53281;SDS011;39167;52.794;6.892;2023-05-01T12:05:48;6.57;;;3.45;;
53281;SDS011;39167;52.794;6.892;2023-05-01T12:08:14;7.93;;;3.05;;
53281;SDS011;39167;52.794;6.892;2023-05-01T12:13:14;10.65;;;3.22;;
53281;SDS011;39167;52.794;6.892;2023-05-01T12:15:44;6.40;;;2.10;;
53281;SDS011;39167;52.794;6.892;2023-05-01T12:18:14;5.75;;;1.90;;
53281;SDS011;39167;52.794;6.892;2023-05-01T12:20:42;5.60;;;1.90;;
53281;SDS011;39167;52.794;6.892;2023-05-01T12:23:13;6.28;;;1.70;;
53281;SDS011;39167;52.794;6.892;2023-05-01T12:25:40;6.78;;;1.83;;
53281;SDS011;39167;52.794;6.892;2023-05-01T12:28:08;6.63;;;1.80;;
53281;SDS011;39167;52.794;6.892;2023-05-01T12:30:35;5.28;;;1.83;;
53281;SDS011;39167;52.794;6.892;2023-05-01T12:33:11;6.57;;;1.75;;
53281;SDS011;39167;52.794;6.892;2023-05-01T12:35:39;4.10;;;2.10;;
53281;SDS011;39167;52.794;6.892;2023-05-01T12:38:09;4.32;;;2.00;;
53281;SDS011;39167;52.794;6.892;2023-05-01T12:40:55;5.32;;;1.50;;
53281;SDS011;39167;52.794;6.892;2023-05-01T12:43:29;5.55;;;2.15;;
53281;SDS011;39167;52.794;6.892;2023-05-01T12:46:02;4.20;;;1.92;;
53281;SDS011;39167;52.794;6.892;2023-05-01T12:48:30;4.07;;;1.83;;
53281;SDS011;39167;52.794;6.892;2023-05-01T12:50:59;6.95;;;2.10;;
53281;SDS011;39167;52.794;6.892;2023-05-01T12:53:26;5.35;;;1.70;;
53281;SDS011;39167;52.794;6.892;2023-05-01T12:55:54;4.35;;;2.00;;
53281;SDS011;39167;52.794;6.892;2023-05-01T12:58:21;5.20;;;1.55;;
53281;SDS011;39167;52.794;6.892;2023-05-01T13:03:14;4.35;;;1.77;;
53281;SDS011;39167;52.794;6.892;2023-05-01T13:05:51;4.95;;;1.75;;
53281;SDS011;39167;52.794;6.892;2023-05-01T13:08:39;3.30;;;1.83;;
53281;SDS011;39167;52.794;6.892;2023-05-01T13:11:15;3.35;;;1.60;;
53281;SDS011;39167;52.794;6.892;2023-05-01T13:13:42;4.93;;;1.52;;
53281;SDS011;39167;52.794;6.892;2023-05-01T13:16:13;7.13;;;2.08;;
53281;SDS011;39167;52.794;6.892;2023-05-01T13:18:46;9.25;;;2.10;;
53281;SDS011;39167;52.794;6.892;2023-05-01T13:21:21;5.38;;;1.95;;
53281;SDS011;39167;52.794;6.892;2023-05-01T13:23:56;4.97;;;2.08;;
53281;SDS011;39167;52.794;6.892;2023-05-01T13:26:24;4.70;;;2.20;;
53281;SDS011;39167;52.794;6.892;2023-05-01T13:28:52;5.15;;;2.28;;
53281;SDS011;39167;52.794;6.892;2023-05-01T13:31:19;5.13;;;1.98;;
53281;SDS011;39167;52.794;6.892;2023-05-01T13:33:45;4.80;;;2.30;;
53281;SDS011;39167;52.794;6.892;2023-05-01T13:36:17;5.30;;;1.70;;
53281;SDS011;39167;52.794;6.892;2023-05-01T13:38:47;6.75;;;1.75;;
53281;SDS011;39167;52.794;6.892;2023-05-01T13:41:24;3.95;;;1.80;;
53281;SDS011;39167;52.794;6.892;2023-05-01T13:43:51;4.68;;;1.40;;
53281;SDS011;39167;52.794;6.892;2023-05-01T13:46:20;2.95;;;1.48;;
53281;SDS011;39167;52.794;6.892;2023-05-01T13:48:47;3.65;;;1.15;;
53281;SDS011;39167;52.794;6.892;2023-05-01T13:51:14;6.50;;;2.30;;
53281;SDS011;39167;52.794;6.892;2023-05-01T13:53:45;5.68;;;1.92;;
53281;SDS011;39167;52.794;6.892;2023-05-01T13:56:11;4.85;;;1.70;;
53281;SDS011;39167;52.794;6.892;2023-05-01T13:58:37;3.78;;;1.52;;
53281;SDS011;39167;52.794;6.892;2023-05-01T14:01:13;4.43;;;1.50;;
53281;SDS011;39167;52.794;6.892;2023-05-01T14:03:41;3.10;;;1.38;;
53281;SDS011;39167;52.794;6.892;2023-05-01T14:06:08;4.32;;;1.40;;
53281;SDS011;39167;52.794;6.892;2023-05-01T14:08:38;5.60;;;1.33;;
53281;SDS011;39167;52.794;6.892;2023-05-01T14:11:04;2.80;;;1.30;;
53281;SDS011;39167;52.794;6.892;2023-05-01T14:13:32;2.65;;;1.08;;
53281;SDS011;39167;52.794;6.892;2023-05-01T14:15:59;4.50;;;1.30;;
53281;SDS011;39167;52.794;6.892;2023-05-01T14:18:27;3.65;;;1.10;;
53281;SDS011;39167;52.794;6.892;2023-05-01T14:20:52;9.38;;;1.40;;
53281;SDS011;39167;52.794;6.892;2023-05-01T14:23:18;5.45;;;1.33;;
53281;SDS011;39167;52.794;6.892;2023-05-01T14:25:45;3.47;;;1.20;;
53281;SDS011;39167;52.794;6.892;2023-05-01T14:28:13;5.70;;;1.48;;
53281;SDS011;39167;52.794;6.892;2023-05-01T14:30:39;4.25;;;1.42;;
53281;SDS011;39167;52.794;6.892;2023-05-01T14:33:07;4.40;;;1.50;;
53281;SDS011;39167;52.794;6.892;2023-05-01T14:38:13;6.63;;;1.30;;
53281;SDS011;39167;52.794;6.892;2023-05-01T14:40:40;4.60;;;1.55;;
53281;SDS011;39167;52.794;6.892;2023-05-01T14:43:08;3.10;;;1.45;;
53281;SDS011;39167;52.794;6.892;2023-05-01T14:45:35;4.35;;;1.60;;
53281;SDS011;39167;52.794;6.892;2023-05-01T14:48:04;3.38;;;1.77;;
53281;SDS011;39167;52.794;6.892;2023-05-01T14:50:30;2.42;;;1.42;;
53281;SDS011;39167;52.794;6.892;2023-05-01T14:52:57;3.55;;;1.60;;
53281;SDS011;39167;52.794;6.892;2023-05-01T14:55:27;2.50;;;1.30;;
53281;SDS011;39167;52.794;6.892;2023-05-01T14:57:56;5.05;;;1.85;;
53281;SDS011;39167;52.794;6.892;2023-05-01T15:00:22;4.97;;;1.70;;
53281;SDS011;39167;52.794;6.892;2023-05-01T15:02:48;5.45;;;1.80;;
53281;SDS011;39167;52.794;6.892;2023-05-01T15:05:15;6.90;;;2.15;;
53281;SDS011;39167;52.794;6.892;2023-05-01T15:07:41;4.30;;;2.00;;
53281;SDS011;39167;52.794;6.892;2023-05-01T15:10:07;3.88;;;1.70;;
53281;SDS011;39167;52.794;6.892;2023-05-01T15:12:34;3.28;;;1.50;;
53281;SDS011;39167;52.794;6.892;2023-05-01T15:15:00;4.82;;;1.70;;
53281;SDS011;39167;52.794;6.892;2023-05-01T15:17:27;4.35;;;1.70;;
53281;SDS011;39167;52.794;6.892;2023-05-01T15:19:53;4.15;;;1.40;;
53281;SDS011;39167;52.794;6.892;2023-05-01T15:22:19;4.57;;;1.48;;
53281;SDS011;39167;52.794;6.892;2023-05-01T15:24:44;5.15;;;1.50;;
53281;SDS011;39167;52.794;6.892;2023-05-01T15:27:11;8.30;;;1.90;;
53281;SDS011;39167;52.794;6.892;2023-05-01T15:29:37;3.92;;;1.60;;
53281;SDS011;39167;52.794;6.892;2023-05-01T15:32:03;2.33;;;1.30;;
53281;SDS011;39167;52.794;6.892;2023-05-01T15:34:30;3.70;;;1.70;;
53281;SDS011;39167;52.794;6.892;2023-05-01T15:36:56;4.95;;;1.73;;
53281;SDS011;39167;52.794;6.892;2023-05-01T15:39:22;6.78;;;1.95;;